Time;durP1;ratioP1;P1;durP2;ratioP2;P2;SDS_P1;SDS_P2;PMS_P1;PMS_P2;Temp;Humidity;BMP_temperature;BMP_pressure;BME280_temperature;BME280_humidity;BME280_pressure;Samples;Min_cycle;Max_cycle;Signal;HPM_P1;HPM_P2
2022/07/04 00:00:59;;;;;;;6.05;2.30;;;;;;;;;;5071112;27;96271;-76
2022/07/04 00:03:25;;;;;;;9.20;2.53;;;;;;;;;;5070153;27;95780;-76
2022/07/04 00:05:51;;;;;;;5.57;2.28;;;;;;;;;;5071687;27;96693;-76
2022/07/04 00:08:18;;;;;;;5.22;2.50;;;;;;;;;;5084970;27;97781;-76
2022/07/04 00:10:44;;;;;;;10.35;2.45;;;;;;;;;;5084963;27;96057;-76
2022/07/04 00:13:10;;;;;;;16.90;2.75;;;;;;;;;;5070325;27;96821;-76
2022/07/04 00:15:37;;;;;;;8.65;2.97;;;;;;;;;;5072513;27;97342;-76
2022/07/04 00:18:03;;;;;;;5.40;2.63;;;;;;;;;;5071909;27;96660;-75
2022/07/04 00:20:29;;;;;;;7.10;2.58;;;;;;;;;;5075359;27;96190;-76
2022/07/04 00:22:56;;;;;;;3.10;2.13;;;;;;;;;;5070139;27;95356;-76
2022/07/04 00:25:22;;;;;;;10.18;2.95;;;;;;;;;;5069746;27;96836;-76
2022/07/04 00:27:48;;;;;;;6.07;2.20;;;;;;;;;;5070172;27;97356;-76
2022/07/04 00:30:15;;;;;;;4.93;2.33;;;;;;;;;;5086883;27;95781;-75
2022/07/04 00:32:41;;;;;;;4.88;2.47;;;;;;;;;;5087831;27;95804;-75
2022/07/04 00:35:08;;;;;;;7.20;2.63;;;;;;;;;;5073770;27;96038;-76
2022/07/04 00:37:34;;;;;;;5.75;2.47;;;;;;;;;;5080469;27;95284;-76
2022/07/04 00:40:00;;;;;;;7.30;2.53;;;;;;;;;;5081746;27;97336;-76
2022/07/04 00:42:27;;;;;;;7.25;3.08;;;;;;;;;;5090637;27;95405;-76
2022/07/04 00:44:53;;;;;;;5.28;3.30;;;;;;;;;;5071241;27;96757;-77
2022/07/04 00:47:19;;;;;;;7.35;3.10;;;;;;;;;;5081491;27;97247;-77
2022/07/04 00:49:46;;;;;;;8.75;2.90;;;;;;;;;;5072396;27;95234;-77
2022/07/04 00:52:13;;;;;;;5.65;2.63;;;;;;;;;;5079005;27;96921;-77
2022/07/04 00:54:39;;;;;;;9.25;2.88;;;;;;;;;;5079114;27;97767;-77
2022/07/04 00:57:06;;;;;;;9.73;2.65;;;;;;;;;;5090797;27;95306;-76
2022/07/04 00:59:32;;;;;;;6.07;2.40;;;;;;;;;;5082317;27;97835;-77
2022/07/04 01:01:58;;;;;;;4.60;2.08;;;;;;;;;;5086425;27;95311;-77
2022/07/04 01:04:25;;;;;;;6.47;2.15;;;;;;;;;;5077017;27;96789;-76
2022/07/04 01:06:52;;;;;;;4.13;2.40;;;;;;;;;;5075678;27;97390;-76
2022/07/04 01:09:18;;;;;;;4.93;2.60;;;;;;;;;;5083512;27;96059;-76
2022/07/04 01:11:44;;;;;;;6.22;2.90;;;;;;;;;;5070009;27;97176;-76
2022/07/04 01:14:11;;;;;;;5.53;2.63;;;;;;;;;;5080537;27;95876;-76
2022/07/04 01:16:37;;;;;;;5.15;2.85;;;;;;;;;;5087721;27;96730;-76
2022/07/04 01:19:04;;;;;;;10.55;3.20;;;;;;;;;;5090762;27;96727;-77
2022/07/04 01:21:31;;;;;;;6.30;2.85;;;;;;;;;;5084366;27;95832;-76
2022/07/04 01:23:57;;;;;;;5.80;2.67;;;;;;;;;;5081367;27;97054;-76
2022/07/04 01:26:24;;;;;;;6.25;3.03;;;;;;;;;;5082074;27;97326;-76
2022/07/04 01:28:50;;;;;;;4.50;2.72;;;;;;;;;;5074581;27;95964;-76
2022/07/04 01:31:16;;;;;;;7.90;3.13;;;;;;;;;;5072266;27;96770;-75
2022/07/04 01:33:43;;;;;;;7.93;2.83;;;;;;;;;;5073483;27;97569;-76
2022/07/04 01:36:09;;;;;;;8.68;3.30;;;;;;;;;;5074650;27;95456;-74
2022/07/04 01:38:35;;;;;;;6.47;3.10;;;;;;;;;;5079415;27;96733;-76
2022/07/04 01:41:02;;;;;;;6.75;3.58;;;;;;;;;;5095701;27;97413;-76
2022/07/04 01:43:28;;;;;;;6.95;3.45;;;;;;;;;;5077599;27;97581;-76
2022/07/04 01:45:54;;;;;;;8.75;4.10;;;;;;;;;;5086650;27;97736;-76
2022/07/04 01:48:21;;;;;;;10.48;4.60;;;;;;;;;;5090787;27;95259;-75
2022/07/04 01:50:47;;;;;;;9.30;4.30;;;;;;;;;;5092615;27;95945;-76
2022/07/04 01:53:13;;;;;;;8.25;4.63;;;;;;;;;;5074965;27;97317;-77
2022/07/04 01:55:40;;;;;;;8.05;4.45;;;;;;;;;;5083887;27;95255;-76
2022/07/04 01:58:06;;;;;;;8.45;4.03;;;;;;;;;;5091971;27;96766;-76
2022/07/04 02:03:17;;;;;;;8.48;4.60;;;;;;;;;;5094356;27;95285;-77
2022/07/04 02:05:43;;;;;;;9.55;5.00;;;;;;;;;;5091374;27;97298;-76
2022/07/04 02:08:10;;;;;;;9.68;4.60;;;;;;;;;;5088499;27;95418;-76
2022/07/04 02:10:36;;;;;;;21.60;5.65;;;;;;;;;;5090754;27;96012;-76
2022/07/04 02:13:05;;;;;;;8.05;4.30;;;;;;;;;;5085093;27;96236;-76
2022/07/04 02:15:36;;;;;;;12.15;4.30;;;;;;;;;;5071418;27;95752;-76
2022/07/04 02:18:07;;;;;;;8.15;4.47;;;;;;;;;;5073722;27;96742;-76
2022/07/04 02:20:35;;;;;;;9.73;4.70;;;;;;;;;;5075461;27;98051;-76
2022/07/04 02:23:01;;;;;;;12.50;4.50;;;;;;;;;;5090942;27;95677;-76
2022/07/04 02:25:27;;;;;;;10.63;4.97;;;;;;;;;;5094194;27;96906;-77
2022/07/04 02:27:54;;;;;;;8.55;4.60;;;;;;;;;;5086082;27;95203;-76
2022/07/04 02:30:20;;;;;;;11.68;5.00;;;;;;;;;;5090488;27;96844;-77
2022/07/04 02:32:46;;;;;;;9.48;5.07;;;;;;;;;;5080933;27;97322;-76
2022/07/04 02:35:13;;;;;;;9.13;5.03;;;;;;;;;;5080376;27;95780;-76
2022/07/04 02:37:39;;;;;;;7.88;4.82;;;;;;;;;;5091186;27;96887;-77
2022/07/04 02:40:06;;;;;;;9.00;4.72;;;;;;;;;;5089803;27;97366;-77
2022/07/04 02:42:33;;;;;;;10.32;4.82;;;;;;;;;;5081548;27;95978;-76
2022/07/04 02:44:59;;;;;;;18.33;5.22;;;;;;;;;;5088662;27;97458;-76
2022/07/04 02:47:26;;;;;;;12.30;5.40;;;;;;;;;;5087479;27;97286;-77
2022/07/04 02:49:53;;;;;;;9.55;5.50;;;;;;;;;;5092149;27;97106;-77
2022/07/04 02:52:19;;;;;;;9.13;5.88;;;;;;;;;;5087043;27;97634;-76
2022/07/04 02:54:46;;;;;;;10.10;5.80;;;;;;;;;;5076616;27;95250;-76
2022/07/04 02:57:13;;;;;;;10.38;5.72;;;;;;;;;;5088448;27;97047;-77
2022/07/04 02:59:39;;;;;;;12.93;5.93;;;;;;;;;;5073755;27;97275;-76
2022/07/04 03:02:06;;;;;;;9.15;5.60;;;;;;;;;;5070822;27;95338;-76
2022/07/04 21:00:11;;;;;;;3.00;1.80;;;;;;;;;;5077791;27;95787;-74
2022/07/04 21:02:38;;;;;;;3.97;1.70;;;;;;;;;;5063166;27;97570;-75
2022/07/04 21:05:05;;;;;;;5.05;1.67;;;;;;;;;;5062290;27;95886;-75
2022/07/04 21:07:49;;;;;;;6.78;1.90;;;;;;;;;;5066178;27;97338;-75
2022/07/04 21:10:16;;;;;;;24.05;2.05;;;;;;;;;;5062443;27;97220;-74
2022/07/04 21:12:42;;;;;;;8.95;1.75;;;;;;;;;;5062546;27;95397;-75
2022/07/04 21:15:09;;;;;;;2.70;1.70;;;;;;;;;;5066005;27;96734;-76
2022/07/04 21:17:48;;;;;;;3.28;1.50;;;;;;;;;;5065649;27;98082;-76
2022/07/04 21:20:14;;;;;;;1.92;1.45;;;;;;;;;;5053954;27;97084;-76
2022/07/04 21:22:42;;;;;;;2.72;1.52;;;;;;;;;;5045661;27;97377;-76
2022/07/04 21:25:08;;;;;;;4.43;1.60;;;;;;;;;;5056895;27;98079;-77
2022/07/04 21:27:35;;;;;;;3.97;1.70;;;;;;;;;;5066181;27;96502;-77
2022/07/04 21:30:01;;;;;;;4.30;1.95;;;;;;;;;;5065613;27;98192;-76
2022/07/04 21:32:28;;;;;;;9.60;2.13;;;;;;;;;;5057547;27;95335;-76
2022/07/04 21:34:54;;;;;;;7.35;2.55;;;;;;;;;;5059325;27;96543;-77
2022/07/04 21:37:41;;;;;;;10.80;3.03;;;;;;;;;;5065660;27;99210;-77
2022/07/04 21:40:08;;;;;;;7.32;3.35;;;;;;;;;;5047174;27;95374;-76
2022/07/04 21:42:35;;;;;;;6.07;3.53;;;;;;;;;;5058010;27;96801;-76
2022/07/04 21:45:01;;;;;;;4.97;3.25;;;;;;;;;;5049162;27;95823;-76
2022/07/04 21:47:28;;;;;;;8.73;3.28;;;;;;;;;;5056673;27;97413;-76
2022/07/04 21:49:54;;;;;;;6.65;3.33;;;;;;;;;;5065331;27;97100;-76
2022/07/04 21:52:23;;;;;;;5.22;3.50;;;;;;;;;;5056908;27;95879;-76
2022/07/04 21:54:50;;;;;;;5.53;2.75;;;;;;;;;;5056966;27;97453;-77
2022/07/04 21:57:17;;;;;;;5.18;2.80;;;;;;;;;;5065430;27;96575;-76
2022/07/04 21:59:43;;;;;;;5.30;2.90;;;;;;;;;;5046697;27;96360;-76
2022/07/04 22:02:12;;;;;;;11.32;2.60;;;;;;;;;;5041326;27;97156;-75
2022/07/04 22:04:38;;;;;;;12.60;2.70;;;;;;;;;;5031329;27;96976;-76
2022/07/04 22:07:07;;;;;;;11.85;2.20;;;;;;;;;;5045287;27;97683;-76
2022/07/04 22:09:33;;;;;;;3.78;1.95;;;;;;;;;;5023390;27;97740;-76
2022/07/04 22:12:00;;;;;;;2.97;1.90;;;;;;;;;;5014173;27;95770;-77
2022/07/04 22:14:26;;;;;;;3.33;1.88;;;;;;;;;;5011400;28;97140;-76
2022/07/04 22:16:53;;;;;;;4.35;2.05;;;;;;;;;;5014676;27;96069;-76
2022/07/04 22:19:22;;;;;;;6.60;2.10;;;;;;;;;;5031147;28;95320;-76
2022/07/04 22:21:48;;;;;;;6.15;2.38;;;;;;;;;;5026276;27;97031;-76
2022/07/04 22:24:18;;;;;;;5.82;2.13;;;;;;;;;;5031620;28;97314;-76
2022/07/04 22:26:44;;;;;;;3.25;1.92;;;;;;;;;;5014633;27;96238;-76
2022/07/04 22:29:12;;;;;;;3.83;2.05;;;;;;;;;;5011421;27;97965;-76
2022/07/04 22:31:38;;;;;;;5.00;2.30;;;;;;;;;;5018190;27;95685;-76
2022/07/04 22:34:05;;;;;;;10.85;2.85;;;;;;;;;;5031215;28;96975;-76
2022/07/04 22:36:31;;;;;;;6.45;2.65;;;;;;;;;;5029634;27;97563;-75
2022/07/04 22:38:58;;;;;;;6.15;2.53;;;;;;;;;;5016849;27;95795;-76
2022/07/04 22:41:24;;;;;;;4.70;2.78;;;;;;;;;;5031169;28;96951;-76
2022/07/04 22:43:50;;;;;;;4.97;2.85;;;;;;;;;;5030688;28;97998;-76
2022/07/04 22:46:17;;;;;;;4.88;2.50;;;;;;;;;;5030334;28;95778;-76
2022/07/04 22:48:44;;;;;;;6.03;2.30;;;;;;;;;;5016737;27;97635;-76
2022/07/04 22:51:12;;;;;;;6.05;2.42;;;;;;;;;;5013748;27;95193;-76
2022/07/04 22:56:27;;;;;;;4.28;2.17;;;;;;;;;;5017320;27;97711;-76
2022/07/04 22:58:54;;;;;;;10.35;2.60;;;;;;;;;;5017264;27;96898;-76
2022/07/04 23:01:21;;;;;;;6.32;2.80;;;;;;;;;;5017790;27;97601;-76
2022/07/04 23:03:48;;;;;;;5.63;2.65;;;;;;;;;;5010760;28;96562;-76
2022/07/04 23:06:15;;;;;;;5.78;2.90;;;;;;;;;;5013913;27;95489;-76
2022/07/04 23:08:41;;;;;;;5.43;2.70;;;;;;;;;;5017094;28;97325;-76
2022/07/04 23:11:08;;;;;;;4.75;2.55;;;;;;;;;;5033258;28;95485;-76
2022/07/04 23:13:34;;;;;;;5.88;2.90;;;;;;;;;;5030095;27;96835;-73
2022/07/04 23:16:01;;;;;;;5.15;3.03;;;;;;;;;;5026903;27;98350;-76
2022/07/04 23:18:28;;;;;;;6.25;2.90;;;;;;;;;;5029482;27;95321;-74
2022/07/04 23:20:54;;;;;;;3.92;2.47;;;;;;;;;;5030110;27;97148;-75
2022/07/04 23:23:20;;;;;;;6.22;2.78;;;;;;;;;;5028871;28;96729;-74
2022/07/04 23:25:47;;;;;;;4.82;2.80;;;;;;;;;;5029755;28;95368;-75
2022/07/04 23:28:13;;;;;;;5.03;3.17;;;;;;;;;;5029960;28;97173;-75
2022/07/04 23:30:40;;;;;;;5.78;2.75;;;;;;;;;;5029610;27;100121;-75
2022/07/04 23:33:07;;;;;;;4.75;2.80;;;;;;;;;;5010543;28;97958;-74
2022/07/04 23:35:33;;;;;;;4.20;2.58;;;;;;;;;;5009446;28;97328;-75
2022/07/04 23:38:00;;;;;;;5.28;2.88;;;;;;;;;;5010849;28;96422;-76
2022/07/04 23:40:26;;;;;;;8.40;3.22;;;;;;;;;;4996400;27;97206;-76
2022/07/04 23:42:53;;;;;;;4.43;3.05;;;;;;;;;;5009443;28;98004;-76
2022/07/04 23:45:19;;;;;;;4.93;2.80;;;;;;;;;;5009320;28;96036;-74
2022/07/04 23:47:46;;;;;;;4.70;2.90;;;;;;;;;;5010336;28;97295;-77
2022/07/04 23:50:12;;;;;;;7.18;3.35;;;;;;;;;;5027257;28;97900;-77
2022/07/04 23:52:39;;;;;;;5.97;3.10;;;;;;;;;;5026292;27;95560;-76
2022/07/04 23:55:06;;;;;;;7.40;3.03;;;;;;;;;;5026318;28;97493;-77
2022/07/04 23:57:32;;;;;;;4.82;2.83;;;;;;;;;;5011420;28;95482;-75
2022/07/04 23:59:59;;;;;;;5.63;3.13;;;;;;;;;;5029300;27;97338;-76
